Time;durP1;ratioP1;P1;durP2;ratioP2;P2;SDS_P1;SDS_P2;PMS_P1;PMS_P2;Temp;Humidity;BMP_temperature;BMP_pressure;BME280_temperature;BME280_humidity;BME280_pressure;Samples;Min_cycle;Max_cycle;Signal;HPM_P1;HPM_P2
2022/05/31 00:00:59;;;;;;;0.20;0.20;;;9.70;99.90;;;;;;4981492;28;20855;-74
2022/05/31 00:03:24;;;;;;;0.20;0.20;;;9.80;99.90;;;;;;4999371;28;20223;-74
2022/05/31 00:05:50;;;;;;;0.20;0.20;;;9.80;99.90;;;;;;5007309;28;20292;-74
2022/05/31 00:08:16;;;;;;;0.20;0.20;;;9.90;99.90;;;;;;5004382;28;20188;-74
2022/05/31 00:10:42;;;;;;;0.20;0.20;;;9.80;99.90;;;;;;4991965;28;21393;-74
2022/05/31 00:13:07;;;;;;;0.20;0.20;;;9.80;99.90;;;;;;5002838;28;20215;-73
2022/05/31 00:15:33;;;;;;;0.20;0.20;;;9.80;99.90;;;;;;5007289;28;20918;-74
2022/05/31 00:17:58;;;;;;;0.20;0.20;;;9.80;99.90;;;;;;4994457;28;20191;-74
2022/05/31 00:20:24;;;;;;;0.20;0.20;;;9.80;99.90;;;;;;5002126;28;20184;-73
2022/05/31 00:22:51;;;;;;;0.20;0.20;;;9.80;99.90;;;;;;5005762;28;20733;-74
2022/05/31 00:25:17;;;;;;;0.20;0.20;;;9.70;99.90;;;;;;5006470;28;20442;-74
2022/05/31 00:27:43;;;;;;;0.20;0.20;;;9.70;99.90;;;;;;4989590;28;20446;-74
2022/05/31 00:30:11;;;;;;;0.20;0.20;;;9.60;99.90;;;;;;5002238;28;20443;-74
2022/05/31 00:32:40;;;;;;;0.20;0.20;;;9.60;99.90;;;;;;5000686;28;20561;-74
2022/05/31 00:35:15;;;;;;;0.20;0.20;;;9.50;99.90;;;;;;5004881;28;20490;-74
2022/05/31 00:37:42;;;;;;;0.20;0.20;;;9.50;99.90;;;;;;5007977;28;20474;-74
2022/05/31 00:40:08;;;;;;;0.20;0.20;;;9.40;99.90;;;;;;5001321;28;20459;-74
2022/05/31 00:42:51;;;;;;;0.30;0.30;;;9.30;99.90;;;;;;5003778;28;20585;-74
2022/05/31 00:45:17;;;;;;;0.20;0.20;;;9.30;99.90;;;;;;5002117;28;20451;-74
2022/05/31 00:47:43;;;;;;;0.20;0.20;;;9.20;99.90;;;;;;5006041;28;20513;-74
2022/05/31 00:50:23;;;;;;;0.20;0.20;;;9.20;99.90;;;;;;5003144;28;22402;-74
2022/05/31 00:52:54;;;;;;;0.20;0.20;;;9.20;99.90;;;;;;5001088;28;20874;-74
2022/05/31 00:55:25;;;;;;;0.20;0.20;;;9.20;99.90;;;;;;5002264;28;20452;-74
2022/05/31 00:58:00;;;;;;;0.20;0.20;;;9.10;99.90;;;;;;5005739;28;20487;-74
2022/05/31 01:00:26;;;;;;;0.20;0.20;;;9.00;99.90;;;;;;5003614;28;20484;-74
2022/05/31 01:02:51;;;;;;;0.20;0.20;;;8.90;99.90;;;;;;4998684;28;20525;-74
2022/05/31 01:05:19;;;;;;;0.20;0.20;;;8.80;99.90;;;;;;5003657;28;20679;-74
2022/05/31 01:07:46;;;;;;;0.20;0.20;;;8.70;99.90;;;;;;4990240;28;20188;-74
2022/05/31 01:10:12;;;;;;;0.20;0.20;;;8.80;99.90;;;;;;5004884;28;20526;-74
2022/05/31 01:12:42;;;;;;;0.20;0.20;;;8.80;99.90;;;;;;5006435;28;20554;-74
2022/05/31 01:15:12;;;;;;;0.20;0.20;;;8.70;99.90;;;;;;5004149;28;20809;-74
2022/05/31 01:17:41;;;;;;;0.30;0.30;;;8.60;99.90;;;;;;5001878;28;20969;-74
2022/05/31 01:20:08;;;;;;;0.30;0.30;;;8.50;99.90;;;;;;4996688;28;20458;-74
2022/05/31 01:22:54;;;;;;;0.27;0.27;;;8.60;99.90;;;;;;5000760;28;20457;-74
2022/05/31 01:25:25;;;;;;;0.30;0.30;;;8.60;99.90;;;;;;5000260;28;21023;-74
2022/05/31 01:28:22;;;;;;;0.27;0.27;;;8.60;99.90;;;;;;5001389;28;20761;-75
2022/05/31 01:31:02;;;;;;;0.20;0.20;;;8.60;99.90;;;;;;5005802;28;20452;-74
2022/05/31 01:33:33;;;;;;;0.20;0.20;;;8.50;99.90;;;;;;4996889;28;20486;-74
2022/05/31 01:36:07;;;;;;;0.20;0.20;;;8.60;99.90;;;;;;5004720;28;20455;-74
2022/05/31 01:38:49;;;;;;;0.20;0.20;;;8.50;99.90;;;;;;5008787;28;20462;-74
2022/05/31 01:41:27;;;;;;;0.30;0.30;;;8.50;99.90;;;;;;5005573;28;20955;-74
2022/05/31 01:43:55;;;;;;;0.20;0.20;;;8.50;99.90;;;;;;4990389;28;20450;-74
2022/05/31 01:46:27;;;;;;;0.30;0.30;;;8.50;99.90;;;;;;4996190;28;20447;-74
2022/05/31 01:48:53;;;;;;;0.30;0.30;;;8.50;99.90;;;;;;5003983;28;20443;-74
2022/05/31 01:51:20;;;;;;;0.20;0.20;;;8.60;99.90;;;;;;4984711;28;20814;-74
2022/05/31 01:53:46;;;;;;;0.30;0.30;;;8.50;99.90;;;;;;5005342;28;20998;-74
2022/05/31 01:56:13;;;;;;;0.20;0.20;;;8.60;99.90;;;;;;5005983;28;20438;-74
2022/05/31 01:58:41;;;;;;;0.20;0.20;;;8.50;99.90;;;;;;5005126;28;20931;-74
2022/05/31 02:01:08;;;;;;;0.20;0.20;;;8.40;99.90;;;;;;5000699;28;20453;-74
2022/05/31 02:03:33;;;;;;;0.30;0.30;;;8.50;99.90;;;;;;4986451;28;21257;-74
2022/05/31 02:05:59;;;;;;;0.30;0.30;;;8.40;99.90;;;;;;5001884;28;20479;-73
2022/05/31 02:08:29;;;;;;;0.20;0.20;;;8.50;99.90;;;;;;5002808;28;20262;-73
2022/05/31 02:10:56;;;;;;;0.20;0.20;;;8.60;99.90;;;;;;5006702;28;20235;-72
2022/05/31 02:13:22;;;;;;;0.20;0.20;;;8.60;99.90;;;;;;5011110;28;20494;-73
2022/05/31 02:15:48;;;;;;;0.30;0.30;;;8.70;99.90;;;;;;5007054;28;20473;-73
2022/05/31 02:18:14;;;;;;;0.20;0.20;;;8.70;99.90;;;;;;5002946;28;20482;-73
2022/05/31 02:20:40;;;;;;;0.20;0.20;;;8.70;99.90;;;;;;5000909;28;20195;-73
2022/05/31 02:23:06;;;;;;;0.30;0.30;;;8.50;99.90;;;;;;4996974;28;20211;-73
2022/05/31 02:25:31;;;;;;;0.30;0.30;;;8.50;99.90;;;;;;4988734;28;20447;-73
2022/05/31 02:27:57;;;;;;;0.30;0.30;;;8.30;99.90;;;;;;5005432;28;20275;-75
2022/05/31 02:30:22;;;;;;;0.30;0.30;;;8.20;99.90;;;;;;5005161;28;20216;-75
2022/05/31 02:32:48;;;;;;;0.30;0.30;;;8.20;99.90;;;;;;4997490;28;20284;-72
2022/05/31 02:35:14;;;;;;;0.27;0.27;;;8.30;99.90;;;;;;5004916;28;20569;-72
2022/05/31 02:37:40;;;;;;;0.30;0.30;;;8.30;99.90;;;;;;4983541;28;20197;-73
2022/05/31 02:40:07;;;;;;;0.20;0.20;;;8.30;99.90;;;;;;4990444;28;20566;-73
2022/05/31 02:42:33;;;;;;;0.30;0.30;;;8.30;99.90;;;;;;5007807;28;20192;-73
2022/05/31 02:44:59;;;;;;;0.20;0.20;;;8.30;99.90;;;;;;5009799;28;20442;-73
2022/05/31 02:47:25;;;;;;;0.23;0.23;;;8.30;99.90;;;;;;5000689;28;20466;-73
2022/05/31 02:49:51;;;;;;;0.20;0.20;;;8.20;99.90;;;;;;4988713;28;20471;-73
2022/05/31 02:52:16;;;;;;;0.20;0.20;;;8.10;99.90;;;;;;5007272;28;20208;-75
2022/05/31 02:54:43;;;;;;;0.23;0.23;;;8.00;99.90;;;;;;5005719;28;20192;-75
2022/05/31 02:57:09;;;;;;;0.20;0.20;;;8.10;99.90;;;;;;5006346;28;20754;-73
2022/05/31 02:59:34;;;;;;;0.30;0.30;;;8.20;99.90;;;;;;5010345;28;20452;-73
2022/05/31 03:02:00;;;;;;;0.20;0.20;;;8.20;99.90;;;;;;4983120;28;20236;-72
2022/05/31 03:04:25;;;;;;;0.30;0.30;;;8.30;99.90;;;;;;5006933;28;20196;-73
2022/05/31 03:06:51;;;;;;;0.20;0.20;;;8.30;99.90;;;;;;4986976;28;20247;-73
2022/05/31 03:09:16;;;;;;;0.30;0.30;;;8.10;99.90;;;;;;5006788;28;20188;-76
2022/05/31 03:11:54;;;;;;;0.30;0.30;;;8.10;99.90;;;;;;5007531;28;20234;-75
2022/05/31 03:14:42;;;;;;;0.30;0.30;;;8.00;99.90;;;;;;4986474;28;20208;-75
2022/05/31 03:17:16;;;;;;;0.20;0.20;;;8.00;99.90;;;;;;4990392;28;20499;-75
2022/05/31 03:19:47;;;;;;;0.30;0.30;;;8.10;99.90;;;;;;4990283;28;20455;-73
2022/05/31 03:22:19;;;;;;;0.30;0.30;;;8.20;99.90;;;;;;5001303;28;20466;-73
2022/05/31 03:24:54;;;;;;;0.20;0.20;;;8.10;99.90;;;;;;5000253;28;20451;-73
2022/05/31 03:27:20;;;;;;;0.30;0.30;;;8.00;99.90;;;;;;4986594;28;21203;-75
2022/05/31 03:29:47;;;;;;;0.30;0.30;;;8.10;99.90;;;;;;5004610;28;20447;-73
2022/05/31 03:32:14;;;;;;;0.30;0.30;;;8.10;99.90;;;;;;4980281;28;20492;-73
2022/05/31 03:34:39;;;;;;;0.27;0.27;;;8.10;99.90;;;;;;5004903;28;20594;-73
2022/05/31 03:37:05;;;;;;;0.30;0.30;;;8.10;99.90;;;;;;4986167;28;20522;-73
2022/05/31 03:39:31;;;;;;;0.30;0.30;;;8.20;99.90;;;;;;5004840;28;20326;-73
2022/05/31 03:41:56;;;;;;;0.20;0.20;;;8.10;99.90;;;;;;5008579;28;20994;-73
2022/05/31 03:44:21;;;;;;;0.30;0.30;;;8.20;99.90;;;;;;4998859;28;20188;-74
2022/05/31 03:46:47;;;;;;;0.30;0.30;;;8.30;99.90;;;;;;4985155;28;20195;-72
2022/05/31 03:49:14;;;;;;;0.30;0.30;;;8.30;99.90;;;;;;5007153;28;20188;-72
2022/05/31 03:51:40;;;;;;;0.30;0.30;;;8.30;99.90;;;;;;5001685;28;20234;-73
2022/05/31 03:54:05;;;;;;;0.30;0.30;;;8.30;99.90;;;;;;4983980;28;20528;-73
2022/05/31 03:56:31;;;;;;;0.30;0.30;;;8.20;99.90;;;;;;5000344;28;20939;-72
2022/05/31 03:58:56;;;;;;;0.30;0.30;;;8.30;99.90;;;;;;5000434;28;20193;-72
2022/05/31 04:01:22;;;;;;;0.30;0.30;;;8.40;99.90;;;;;;4984207;28;20224;-73
2022/05/31 04:03:48;;;;;;;0.20;0.20;;;8.40;99.90;;;;;;5005280;28;20196;-73
2022/05/31 04:06:13;;;;;;;0.20;0.20;;;8.40;99.90;;;;;;4989316;28;20558;-73
2022/05/31 04:08:39;;;;;;;0.20;0.20;;;8.40;99.90;;;;;;4981681;28;20668;-72
2022/05/31 04:11:04;;;;;;;0.20;0.20;;;8.30;99.90;;;;;;5009045;28;20188;-73
2022/05/31 04:13:30;;;;;;;0.20;0.20;;;8.20;99.90;;;;;;5005527;28;20315;-73
2022/05/31 04:16:03;;;;;;;0.20;0.20;;;8.20;99.90;;;;;;4994800;28;20452;-73
2022/05/31 04:18:28;;;;;;;0.30;0.30;;;8.20;99.90;;;;;;5004867;28;20193;-75
2022/05/31 04:21:00;;;;;;;0.20;0.20;;;8.20;99.90;;;;;;4997066;28;20478;-75
2022/05/31 04:26:10;;;;;;;0.20;0.20;;;8.30;99.90;;;;;;5004707;28;20488;-72
2022/05/31 04:28:36;;;;;;;0.20;0.20;;;8.30;99.90;;;;;;4987031;28;20844;-73
2022/05/31 04:31:01;;;;;;;0.27;0.27;;;8.40;99.90;;;;;;5003687;28;20199;-73
2022/05/31 04:33:27;;;;;;;0.30;0.30;;;8.50;99.90;;;;;;5006260;28;20711;-73
2022/05/31 04:36:05;;;;;;;0.30;0.30;;;8.60;99.90;;;;;;4988586;28;20220;-72
2022/05/31 04:38:31;;;;;;;0.30;0.30;;;8.50;99.90;;;;;;4989846;28;20195;-72
2022/05/31 04:40:56;;;;;;;0.27;0.27;;;8.40;99.90;;;;;;4983209;28;20731;-73
2022/05/31 04:43:22;;;;;;;0.20;0.20;;;8.40;99.90;;;;;;4995350;28;20475;-72
2022/05/31 04:45:48;;;;;;;0.20;0.20;;;8.50;99.90;;;;;;4993225;28;20185;-72
2022/05/31 04:48:13;;;;;;;0.30;0.30;;;8.50;99.90;;;;;;4982252;28;20191;-72
2022/05/31 04:50:39;;;;;;;0.20;0.20;;;8.60;99.90;;;;;;5005080;28;20196;-75
2022/05/31 04:53:05;;;;;;;0.20;0.20;;;8.70;99.90;;;;;;5007930;28;20227;-73
2022/05/31 04:55:30;;;;;;;0.30;0.30;;;8.70;99.90;;;;;;5007562;28;20674;-74
2022/05/31 04:57:56;;;;;;;0.20;0.20;;;8.80;99.90;;;;;;4991247;28;20189;-75
2022/05/31 05:00:21;;;;;;;0.20;0.20;;;8.70;99.90;;;;;;5002265;28;20193;-74
2022/05/31 05:02:47;;;;;;;0.27;0.27;;;8.70;99.90;;;;;;4986109;28;20271;-72
2022/05/31 05:05:12;;;;;;;0.20;0.20;;;8.80;99.90;;;;;;4991820;28;20180;-74
2022/05/31 05:07:38;;;;;;;0.20;0.20;;;8.90;99.90;;;;;;4985721;28;20189;-74
2022/05/31 05:10:08;;;;;;;0.30;0.30;;;8.90;99.90;;;;;;5001102;28;20664;-74
2022/05/31 05:12:34;;;;;;;0.20;0.20;;;9.00;99.90;;;;;;5001607;28;20205;-74
2022/05/31 05:14:59;;;;;;;0.27;0.27;;;9.20;99.90;;;;;;5004972;28;20466;-74
2022/05/31 05:17:25;;;;;;;0.20;0.20;;;9.30;99.90;;;;;;5002526;28;20560;-74
2022/05/31 05:19:51;;;;;;;0.20;0.20;;;9.40;99.90;;;;;;4990727;28;20188;-74
2022/05/31 05:22:17;;;;;;;0.23;0.23;;;9.50;99.90;;;;;;4992038;28;20854;-74
2022/05/31 05:24:43;;;;;;;0.20;0.20;;;9.60;99.90;;;;;;5007784;28;20192;-74
2022/05/31 05:27:08;;;;;;;0.20;0.20;;;9.60;99.90;;;;;;5004313;28;20188;-74
2022/05/31 05:32:18;;;;;;;0.20;0.20;;;10.00;99.90;;;;;;5002700;28;20246;-74
2022/05/31 05:34:43;;;;;;;0.20;0.20;;;10.00;99.90;;;;;;5006268;28;20938;-74
2022/05/31 05:37:09;;;;;;;0.20;0.20;;;10.10;99.90;;;;;;5000957;28;20188;-74
2022/05/31 05:39:34;;;;;;;0.30;0.30;;;10.20;99.90;;;;;;5009170;28;20184;-74
2022/05/31 05:42:00;;;;;;;0.30;0.30;;;10.20;99.90;;;;;;5007645;28;20275;-74
2022/05/31 05:44:26;;;;;;;0.20;0.20;;;10.30;99.90;;;;;;5008533;28;20560;-74
2022/05/31 05:46:52;;;;;;;0.20;0.20;;;10.40;99.90;;;;;;5007359;28;20215;-74
2022/05/31 05:49:17;;;;;;;0.20;0.20;;;10.40;99.90;;;;;;5013319;28;20478;-74
2022/05/31 05:51:44;;;;;;;0.20;0.20;;;10.50;99.90;;;;;;4993625;28;20215;-74
2022/05/31 05:54:10;;;;;;;0.20;0.20;;;10.50;99.90;;;;;;4979346;28;20232;-74
2022/05/31 05:56:35;;;;;;;0.20;0.20;;;10.60;99.90;;;;;;5010931;28;20439;-74
2022/05/31 05:59:01;;;;;;;0.20;0.20;;;10.80;99.90;;;;;;5012887;28;20192;-74
2022/05/31 06:01:35;;;;;;;0.10;0.10;;;10.90;99.90;;;;;;5010356;28;20231;-74
2022/05/31 06:04:13;;;;;;;0.10;0.10;;;10.90;99.90;;;;;;4994948;28;20516;-75
2022/05/31 06:06:42;;;;;;;0.10;0.10;;;11.00;99.90;;;;;;5008786;28;20447;-74
2022/05/31 06:09:11;;;;;;;0.20;0.20;;;11.10;99.90;;;;;;4978857;28;22164;-74
2022/05/31 06:11:51;;;;;;;0.10;0.10;;;11.10;99.90;;;;;;4987274;28;20454;-74
2022/05/31 06:14:27;;;;;;;0.20;0.20;;;11.30;99.90;;;;;;5009978;28;20478;-74
2022/05/31 06:17:03;;;;;;;0.10;0.10;;;11.40;99.90;;;;;;5008050;28;20449;-75
2022/05/31 06:19:35;;;;;;;0.20;0.20;;;11.50;99.90;;;;;;5009240;28;20445;-75
2022/05/31 06:22:03;;;;;;;0.10;0.10;;;11.50;99.90;;;;;;4989435;28;20447;-74
2022/05/31 06:24:31;;;;;;;0.10;0.10;;;11.60;99.90;;;;;;4990237;28;20981;-75
2022/05/31 06:26:56;;;;;;;0.20;0.20;;;11.60;99.90;;;;;;5005614;28;20463;-74
2022/05/31 06:29:22;;;;;;;0.20;0.20;;;11.60;99.90;;;;;;4987763;28;20442;-74
2022/05/31 06:31:47;;;;;;;0.10;0.10;;;11.70;99.90;;;;;;4989203;28;20593;-74
2022/05/31 06:34:13;;;;;;;0.10;0.10;;;11.80;99.90;;;;;;4993220;28;20286;-75
2022/05/31 06:36:39;;;;;;;0.10;0.10;;;11.80;99.90;;;;;;5003463;28;20572;-75
2022/05/31 06:39:05;;;;;;;0.10;0.10;;;11.80;99.90;;;;;;5001151;28;20242;-76
2022/05/31 06:41:31;;;;;;;0.10;0.10;;;11.80;99.90;;;;;;4991601;28;20955;-76
2022/05/31 06:43:59;;;;;;;0.10;0.10;;;11.90;99.90;;;;;;5005420;28;20471;-75
2022/05/31 06:46:24;;;;;;;0.10;0.10;;;12.10;99.90;;;;;;4974866;28;20542;-75
2022/05/31 06:48:50;;;;;;;0.10;0.10;;;12.20;99.90;;;;;;5008888;28;20542;-75
2022/05/31 06:56:48;;;;;;;0.10;0.10;;;12.30;99.90;;;;;;5004987;28;20207;-74
2022/05/31 06:56:58;;;;;;;0.10;0.10;;;12.30;99.90;;;;;;5004789;28;20453;-74
2022/05/31 06:59:24;;;;;;;0.10;0.10;;;12.50;99.90;;;;;;5010598;28;20821;-74
2022/05/31 07:01:49;;;;;;;0.10;0.10;;;12.50;99.90;;;;;;5010802;28;20475;-74
2022/05/31 07:04:16;;;;;;;0.10;0.10;;;12.60;99.90;;;;;;5011881;28;20275;-74
2022/05/31 07:06:41;;;;;;;0.10;0.10;;;12.70;99.90;;;;;;5010877;28;20188;-74
2022/05/31 07:09:07;;;;;;;0.20;0.20;;;12.80;99.90;;;;;;4984836;28;20454;-75
2022/05/31 07:11:33;;;;;;;0.10;0.10;;;12.90;99.90;;;;;;4991604;28;20188;-74
2022/05/31 07:14:00;;;;;;;0.10;0.10;;;12.80;99.90;;;;;;5011126;28;20338;-75
2022/05/31 07:16:26;;;;;;;0.10;0.10;;;13.00;99.90;;;;;;5008728;28;20191;-75
2022/05/31 07:18:52;;;;;;;0.10;0.10;;;13.00;99.90;;;;;;5011274;28;20788;-75
2022/05/31 07:21:17;;;;;;;0.10;0.10;;;13.20;99.90;;;;;;5008340;28;20231;-74
2022/05/31 07:23:43;;;;;;;0.10;0.10;;;13.20;99.90;;;;;;5010615;28;20180;-75
2022/05/31 07:26:11;;;;;;;0.10;0.10;;;13.10;99.90;;;;;;5009151;28;20620;-74
2022/05/31 07:28:37;;;;;;;0.10;0.10;;;13.30;99.90;;;;;;5000340;28;20276;-74
2022/05/31 07:31:02;;;;;;;0.10;0.10;;;13.20;99.90;;;;;;4999648;28;21112;-74
2022/05/31 07:33:28;;;;;;;0.10;0.10;;;13.40;99.90;;;;;;5006549;28;20703;-74
2022/05/31 07:35:53;;;;;;;0.20;0.20;;;13.50;99.90;;;;;;5007946;28;20194;-74
2022/05/31 07:38:20;;;;;;;0.10;0.10;;;13.30;99.90;;;;;;5009275;28;20270;-74
2022/05/31 07:40:47;;;;;;;0.10;0.10;;;13.10;99.90;;;;;;5007778;28;20191;-74
2022/05/31 07:43:13;;;;;;;0.10;0.10;;;13.20;99.90;;;;;;5007895;28;20447;-75
2022/05/31 07:45:38;;;;;;;0.10;0.10;;;13.20;99.90;;;;;;5006911;28;21082;-74
2022/05/31 07:48:05;;;;;;;0.10;0.10;;;13.20;99.90;;;;;;4989136;28;20454;-74
2022/05/31 07:50:31;;;;;;;0.10;0.10;;;13.50;99.90;;;;;;5005747;28;20275;-75
2022/05/31 07:52:59;;;;;;;0.10;0.10;;;13.30;99.90;;;;;;4998869;28;21127;-75
2022/05/31 07:55:25;;;;;;;0.10;0.10;;;13.30;99.90;;;;;;5000778;28;20188;-75
2022/05/31 08:00:35;;;;;;;0.10;0.10;;;13.50;99.90;;;;;;5006521;28;20446;-75
2022/05/31 08:03:00;;;;;;;0.10;0.10;;;13.80;99.90;;;;;;5000494;28;20484;-76
2022/05/31 08:05:26;;;;;;;0.10;0.10;;;13.70;99.90;;;;;;5006306;28;20184;-74
2022/05/31 08:07:51;;;;;;;0.10;0.10;;;13.70;99.90;;;;;;4991428;28;20218;-74
2022/05/31 08:10:19;;;;;;;0.10;0.10;;;13.60;99.90;;;;;;4998805;28;20263;-75
2022/05/31 08:12:45;;;;;;;0.10;0.10;;;13.80;99.90;;;;;;5005677;28;20224;-76
2022/05/31 08:15:11;;;;;;;0.10;0.10;;;14.00;99.90;;;;;;5009418;28;20467;-76
2022/05/31 08:17:37;;;;;;;0.10;0.10;;;14.20;99.90;;;;;;5008311;28;20446;-75
2022/05/31 08:20:04;;;;;;;0.10;0.10;;;14.60;99.90;;;;;;5008543;28;20192;-75
2022/05/31 08:22:30;;;;;;;0.10;0.10;;;14.60;99.90;;;;;;5005264;28;20444;-75
2022/05/31 08:24:56;;;;;;;0.10;0.10;;;14.40;99.90;;;;;;5003400;28;20443;-74
2022/05/31 08:27:21;;;;;;;0.10;0.10;;;14.10;99.90;;;;;;5006142;28;20193;-74
2022/05/31 08:29:47;;;;;;;0.10;0.10;;;14.40;99.90;;;;;;5005547;28;20220;-75
2022/05/31 08:32:12;;;;;;;0.10;0.10;;;14.60;99.90;;;;;;4999173;28;20252;-75
2022/05/31 08:34:38;;;;;;;0.10;0.10;;;14.90;99.90;;;;;;5008776;28;20254;-75
2022/05/31 08:37:04;;;;;;;0.10;0.10;;;14.90;99.90;;;;;;5007064;28;20193;-75
2022/05/31 08:39:29;;;;;;;0.10;0.10;;;14.40;99.90;;;;;;5008273;28;20200;-75
2022/05/31 08:42:07;;;;;;;0.10;0.10;;;13.70;99.90;;;;;;4988987;28;20431;-75
2022/05/31 08:44:59;;;;;;;0.10;0.10;;;14.10;99.90;;;;;;5006444;28;20239;-75
2022/05/31 08:48:00;;;;;;;0.10;0.10;;;14.70;99.90;;;;;;4996923;28;20458;-76
2022/05/31 08:53:24;;;;;;;0.10;0.10;;;15.60;99.90;;;;;;5002344;28;20533;-75
2022/05/31 08:59:16;;;;;;;0.10;0.10;;;15.50;99.90;;;;;;5000329;28;20513;-74
2022/05/31 09:01:53;;;;;;;0.10;0.10;;;15.60;99.90;;;;;;4998357;28;20537;-76
2022/05/31 09:04:24;;;;;;;0.10;0.10;;;15.90;99.90;;;;;;5003478;28;22556;-77
2022/05/31 09:06:54;;;;;;;0.10;0.10;;;16.40;99.90;;;;;;5003646;28;20455;-77
2022/05/31 09:09:26;;;;;;;0.10;0.10;;;15.90;99.90;;;;;;5007179;28;20455;-77
2022/05/31 09:11:57;;;;;;;0.10;0.10;;;15.80;99.90;;;;;;5007096;28;20443;-77
2022/05/31 09:14:38;;;;;;;0.10;0.10;;;15.60;99.90;;;;;;4987648;28;20518;-77
2022/05/31 09:17:10;;;;;;;0.10;0.10;;;15.30;99.90;;;;;;5000566;28;20451;-75
2022/05/31 09:19:40;;;;;;;0.10;0.10;;;14.50;99.90;;;;;;5006799;28;20443;-75
2022/05/31 09:22:07;;;;;;;0.10;0.10;;;14.50;99.90;;;;;;5007780;28;20446;-75
2022/05/31 09:24:37;;;;;;;0.10;0.10;;;14.50;99.90;;;;;;5006106;28;21065;-78
2022/05/31 09:27:09;;;;;;;0.10;0.10;;;14.70;99.90;;;;;;5004527;28;20496;-77
2022/05/31 09:29:35;;;;;;;0.10;0.10;;;14.70;99.90;;;;;;5009021;28;20451;-78
2022/05/31 09:32:04;;;;;;;0.10;0.10;;;14.70;99.90;;;;;;4997916;28;20445;-78
2022/05/31 09:34:48;;;;;;;0.10;0.10;;;14.70;99.90;;;;;;5002687;28;20200;-78
2022/05/31 09:37:32;;;;;;;0.10;0.10;;;15.20;99.90;;;;;;5006997;28;20974;-78
2022/05/31 09:40:23;;;;;;;0.10;0.10;;;16.00;99.90;;;;;;5006468;28;20443;-77
2022/05/31 09:43:16;;;;;;;0.10;0.10;;;16.60;99.90;;;;;;4989073;28;20471;-78
2022/05/31 09:45:50;;;;;;;0.10;0.10;;;16.30;99.90;;;;;;5004396;28;20451;-78
2022/05/31 09:48:16;;;;;;;0.10;0.10;;;15.90;99.90;;;;;;5005954;28;20438;-77
2022/05/31 09:50:44;;;;;;;0.10;0.10;;;16.00;99.90;;;;;;5001886;28;21629;-77
2022/05/31 09:58:39;;;;;;;0.10;0.10;;;16.50;99.90;;;;;;5006210;28;20458;-78
2022/05/31 10:01:29;;;;;;;0.10;0.10;;;16.80;99.90;;;;;;5007050;28;20451;-78
2022/05/31 10:04:07;;;;;;;0.10;0.10;;;16.70;99.90;;;;;;4987908;28;20453;-77
2022/05/31 10:06:33;;;;;;;0.10;0.10;;;16.80;99.90;;;;;;4997434;28;20453;-78
2022/05/31 10:09:15;;;;;;;0.10;0.10;;;16.80;99.90;;;;;;5008031;28;20447;-82
2022/05/31 10:11:45;;;;;;;0.10;0.10;;;16.80;99.90;;;;;;5003753;28;20439;-78
2022/05/31 10:14:25;;;;;;;0.10;0.10;;;16.80;99.90;;;;;;5001512;28;20482;-78
2022/05/31 10:16:52;;;;;;;0.10;0.10;;;16.90;99.90;;;;;;5004300;28;20521;-77
2022/05/31 10:19:30;;;;;;;0.10;0.10;;;17.20;99.90;;;;;;4980908;28;20479;-78
2022/05/31 10:21:57;;;;;;;0.10;0.10;;;17.00;99.90;;;;;;4996779;28;20516;-76
2022/05/31 10:24:26;;;;;;;0.10;0.10;;;16.90;99.90;;;;;;5008719;28;20443;-77
2022/05/31 10:27:06;;;;;;;0.10;0.10;;;17.00;99.90;;;;;;4988416;28;20493;-76
2022/05/31 10:29:51;;;;;;;0.10;0.10;;;16.70;99.90;;;;;;5002111;28;20475;-77
2022/05/31 10:32:42;;;;;;;0.10;0.10;;;16.50;99.90;;;;;;4984988;28;20450;-77
2022/05/31 10:35:13;;;;;;;0.10;0.10;;;17.60;99.90;;;;;;5004864;28;20461;-76
2022/05/31 10:38:04;;;;;;;0.10;0.00;;;18.20;99.90;;;;;;4994117;28;20566;-77
2022/05/31 10:40:44;;;;;;;0.10;0.00;;;18.00;99.90;;;;;;5008042;28;20443;-77
2022/05/31 10:43:27;;;;;;;0.10;0.00;;;18.10;99.90;;;;;;5012028;28;20565;-77
2022/05/31 10:45:55;;;;;;;0.10;0.10;;;17.60;99.90;;;;;;5008743;28;21078;-76
2022/05/31 10:48:21;;;;;;;0.00;0.00;;;16.70;99.90;;;;;;5009932;28;20453;-77
2022/05/31 10:51:05;;;;;;;0.10;0.10;;;16.40;99.90;;;;;;5000643;28;20525;-76
2022/05/31 10:53:37;;;;;;;0.10;0.10;;;16.60;99.90;;;;;;5002121;28;20562;-76
2022/05/31 10:56:17;;;;;;;0.10;0.10;;;17.10;99.90;;;;;;4992279;28;20444;-76
2022/05/31 10:58:47;;;;;;;0.10;0.00;;;18.10;99.90;;;;;;5008716;28;20461;-75
2022/05/31 11:01:33;;;;;;;0.10;0.00;;;18.60;99.90;;;;;;4992249;28;20447;-75
2022/05/31 11:04:32;;;;;;;0.10;0.00;;;18.30;99.90;;;;;;5016640;28;20457;-76
2022/05/31 11:07:13;;;;;;;0.10;0.00;;;17.60;99.90;;;;;;4994972;28;21104;-77
2022/05/31 11:12:53;;;;;;;0.10;0.10;;;17.00;99.90;;;;;;5012298;28;20498;-76
2022/05/31 11:15:37;;;;;;;0.10;0.10;;;16.60;99.90;;;;;;5011976;28;20594;-76
2022/05/31 11:18:09;;;;;;;0.03;0.00;;;17.10;99.90;;;;;;5011230;28;21047;-76
2022/05/31 11:20:55;;;;;;;0.10;0.00;;;16.70;99.90;;;;;;4989946;28;20448;-76
2022/05/31 11:23:21;;;;;;;0.10;0.10;;;17.20;99.90;;;;;;4976905;28;20431;-76
2022/05/31 11:26:15;;;;;;;0.10;0.00;;;17.90;99.90;;;;;;5010656;28;20538;-77
2022/05/31 11:29:11;;;;;;;0.10;0.00;;;19.20;99.90;;;;;;5012869;28;20447;-77
2022/05/31 11:31:50;;;;;;;0.10;0.00;;;18.90;99.90;;;;;;5012587;28;20435;-77
2022/05/31 11:34:40;;;;;;;0.10;0.00;;;18.70;99.90;;;;;;5010749;28;20490;-77
2022/05/31 11:37:10;;;;;;;0.10;0.00;;;18.70;99.90;;;;;;5012485;28;20462;-77
2022/05/31 11:40:03;;;;;;;0.10;0.00;;;18.50;99.90;;;;;;5005053;28;20967;-76
2022/05/31 11:42:44;;;;;;;0.10;0.10;;;17.70;99.90;;;;;;5012165;28;20435;-76
2022/05/31 11:45:33;;;;;;;0.10;0.00;;;18.00;99.90;;;;;;5012025;28;20458;-77
2022/05/31 11:48:37;;;;;;;0.10;0.00;;;19.20;99.90;;;;;;5010907;28;20443;-76
2022/05/31 11:51:11;;;;;;;0.10;0.00;;;20.10;99.90;;;;;;4983387;28;20959;-76
2022/05/31 11:54:28;;;;;;;0.10;0.00;;;20.00;99.90;;;;;;4988677;28;21057;-77
2022/05/31 11:57:06;;;;;;;0.10;0.00;;;20.70;99.90;;;;;;4942610;28;20435;-77
2022/05/31 11:59:46;;;;;;;0.10;0.00;;;20.60;99.90;;;;;;5015991;28;20492;-77
2022/05/31 12:02:28;;;;;;;0.10;0.00;;;19.90;99.90;;;;;;4990322;28;20574;-77
2022/05/31 12:05:00;;;;;;;0.10;0.00;;;19.40;99.90;;;;;;4997752;28;20451;-77
2022/05/31 12:07:52;;;;;;;0.10;0.00;;;19.20;99.90;;;;;;5010119;28;20826;-77
2022/05/31 12:10:23;;;;;;;0.10;0.00;;;19.50;99.90;;;;;;5019253;28;20449;-77
2022/05/31 12:12:51;;;;;;;0.10;0.00;;;20.10;99.90;;;;;;5019676;28;20590;-77
2022/05/31 12:15:21;;;;;;;0.10;0.00;;;20.80;99.90;;;;;;5012206;28;20430;-77
2022/05/31 12:18:03;;;;;;;0.10;0.00;;;21.00;99.90;;;;;;5001900;28;20455;-75
2022/05/31 12:20:33;;;;;;;0.10;0.00;;;21.00;99.90;;;;;;5000125;28;20458;-76
2022/05/31 12:23:08;;;;;;;0.10;0.00;;;20.60;99.90;;;;;;5003735;28;20481;-76
2022/05/31 12:25:39;;;;;;;0.10;0.00;;;20.00;99.90;;;;;;4991283;28;20477;-77
2022/05/31 12:28:31;;;;;;;0.10;0.00;;;19.50;99.90;;;;;;4993936;28;20835;-77
2022/05/31 12:31:32;;;;;;;0.10;0.00;;;19.00;99.90;;;;;;5005522;28;20866;-76
2022/05/31 12:34:14;;;;;;;0.10;0.10;;;18.50;99.90;;;;;;4984100;28;20907;-77
2022/05/31 12:37:02;;;;;;;0.10;0.00;;;18.20;99.90;;;;;;5004532;28;21200;-77
2022/05/31 12:39:31;;;;;;;0.10;0.00;;;18.00;99.90;;;;;;4984563;28;20821;-78
2022/05/31 12:41:58;;;;;;;0.10;0.00;;;18.10;99.90;;;;;;5010548;28;20431;-77
2022/05/31 12:44:34;;;;;;;0.10;0.00;;;18.00;99.90;;;;;;5000084;28;20486;-77
2022/05/31 12:47:23;;;;;;;0.10;0.00;;;17.80;99.90;;;;;;5008009;28;20447;-77
2022/05/31 12:49:55;;;;;;;0.10;0.00;;;17.60;99.90;;;;;;5002195;28;20956;-77
2022/05/31 12:55:03;;;;;;;0.00;0.00;;;17.60;99.90;;;;;;5011004;28;20437;-77
2022/05/31 12:58:26;;;;;;;0.00;0.00;;;17.80;99.90;;;;;;5007173;28;20450;-76
2022/05/31 13:00:35;;;;;;;0.00;0.00;;;18.30;99.90;;;;;;5000311;28;20515;-76
2022/05/31 13:03:25;;;;;;;0.00;0.00;;;18.90;99.90;;;;;;4990006;28;20483;-77
2022/05/31 13:05:58;;;;;;;0.00;0.00;;;19.20;99.90;;;;;;5008754;28;20951;-77
2022/05/31 13:08:51;;;;;;;0.00;0.00;;;19.30;99.90;;;;;;5001605;28;20443;-77
2022/05/31 13:20:20;;;;;;;0.00;0.00;;;20.40;99.90;;;;;;5010695;28;20968;-77
2022/05/31 13:22:59;;;;;;;0.00;0.00;;;19.70;99.90;;;;;;5008848;28;20453;-77
2022/05/31 13:25:32;;;;;;;0.00;0.00;;;19.70;99.90;;;;;;4992873;28;20443;-76
2022/05/31 13:28:01;;;;;;;0.00;0.00;;;18.60;99.90;;;;;;4992816;28;20431;-76
2022/05/31 13:30:34;;;;;;;0.00;0.00;;;19.30;99.90;;;;;;4997645;28;20543;-76
2022/05/31 13:33:16;;;;;;;0.00;0.00;;;19.60;99.90;;;;;;4990952;28;20471;-77
2022/05/31 13:35:42;;;;;;;0.00;0.00;;;19.50;99.90;;;;;;4990500;28;20436;-76
2022/05/31 13:38:23;;;;;;;0.00;0.00;;;18.90;99.90;;;;;;4979657;28;20447;-75
2022/05/31 13:40:53;;;;;;;0.00;0.00;;;18.40;99.90;;;;;;5009830;28;20234;-76
2022/05/31 13:43:23;;;;;;;0.00;0.00;;;18.20;99.90;;;;;;5010318;28;20481;-76
2022/05/31 13:46:00;;;;;;;0.00;0.00;;;17.90;99.90;;;;;;5006653;28;20453;-78
2022/05/31 13:48:31;;;;;;;0.00;0.00;;;17.60;99.90;;;;;;4990370;28;20424;-79